Time;durP1;ratioP1;P1;durP2;ratioP2;P2;SDS_P1;SDS_P2;PMS_P1;PMS_P2;Temp;Humidity;BMP_temperature;BMP_pressure;BME280_temperature;BME280_humidity;BME280_pressure;Samples;Min_cycle;Max_cycle;Signal;HPM_P1;HPM_P2
2021/04/19 00:00:08;;;;;;;10.70;8.15;;;10.30;78.80;;;;;;5095469;28;20020;-35
2021/04/19 00:02:33;;;;;;;15.70;9.52;;;10.20;79.10;;;;;;5095645;28;20031;-35
2021/04/19 00:04:59;;;;;;;11.90;9.38;;;10.30;79.00;;;;;;5095010;28;20414;-35
2021/04/19 00:07:25;;;;;;;13.68;9.70;;;10.40;78.30;;;;;;5095000;28;20053;-35
2021/04/19 00:09:50;;;;;;;11.68;9.13;;;10.30;79.00;;;;;;5095182;28;20032;-36
2021/04/19 00:12:16;;;;;;;14.60;9.53;;;10.30;79.10;;;;;;5094952;28;20052;-34
2021/04/19 00:14:42;;;;;;;12.18;8.90;;;10.30;79.00;;;;;;5095397;28;20060;-36
2021/04/19 00:17:07;;;;;;;11.20;9.00;;;10.20;79.00;;;;;;5094842;28;20455;-35
2021/04/19 00:19:33;;;;;;;10.23;7.57;;;10.10;79.50;;;;;;5094720;28;20023;-37
2021/04/19 00:21:59;;;;;;;14.57;10.30;;;10.10;79.50;;;;;;5094723;28;20062;-37
2021/04/19 00:24:24;;;;;;;15.45;10.23;;;10.00;79.80;;;;;;5093481;28;20031;-35
2021/04/19 00:26:50;;;;;;;11.02;9.13;;;9.80;80.50;;;;;;5094546;28;20024;-35
2021/04/19 00:29:15;;;;;;;12.27;9.73;;;9.70;80.90;;;;;;5094762;28;20464;-35
2021/04/19 00:31:41;;;;;;;14.10;9.60;;;9.70;81.10;;;;;;5094545;28;20491;-35
2021/04/19 00:34:07;;;;;;;13.00;9.93;;;9.80;81.00;;;;;;5094507;28;20035;-35
2021/04/19 00:36:32;;;;;;;11.23;8.40;;;9.80;81.00;;;;;;5093403;28;20028;-35
2021/04/19 00:38:58;;;;;;;11.07;9.23;;;9.70;81.10;;;;;;5094852;28;20061;-35
2021/04/19 00:41:24;;;;;;;11.45;9.50;;;9.70;81.10;;;;;;5094846;28;20078;-35
2021/04/19 00:43:50;;;;;;;12.98;9.40;;;9.80;81.10;;;;;;5094334;28;20024;-36
2021/04/19 00:46:16;;;;;;;13.88;9.50;;;9.80;81.00;;;;;;5094610;28;20032;-35
2021/04/19 00:48:42;;;;;;;16.17;9.18;;;10.30;79.30;;;;;;5094208;28;20147;-35
2021/04/19 00:51:08;;;;;;;10.10;8.65;;;10.20;79.30;;;;;;5094618;28;20023;-35
2021/04/19 00:53:35;;;;;;;13.63;10.18;;;10.10;79.80;;;;;;5094539;28;20380;-35
2021/04/19 00:56:01;;;;;;;13.15;9.43;;;10.10;80.10;;;;;;5094114;28;20035;-35
2021/04/19 00:58:32;;;;;;;12.27;9.77;;;10.00;80.30;;;;;;5094489;28;20020;-36
2021/04/19 01:00:58;;;;;;;12.80;9.23;;;10.00;80.50;;;;;;5094332;28;20035;-36
2021/04/19 01:03:24;;;;;;;12.23;10.18;;;10.30;79.80;;;;;;5094231;28;20034;-35
2021/04/19 01:05:51;;;;;;;14.05;10.23;;;10.60;78.00;;;;;;5093382;28;20031;-35
2021/04/19 01:08:16;;;;;;;14.80;10.93;;;10.80;77.60;;;;;;5093949;28;20036;-35
2021/04/19 01:10:43;;;;;;;14.23;10.75;;;10.60;77.80;;;;;;5092601;28;20499;-35
2021/04/19 01:13:08;;;;;;;13.00;10.52;;;10.50;78.40;;;;;;5094090;28;20379;-35
2021/04/19 01:15:35;;;;;;;12.93;10.50;;;10.80;77.60;;;;;;5093815;28;20024;-35
2021/04/19 01:18:01;;;;;;;14.85;10.40;;;10.70;77.80;;;;;;5093685;28;20067;-35
2021/04/19 01:20:29;;;;;;;15.60;10.65;;;10.60;77.80;;;;;;5093975;28;20472;-35
2021/04/19 01:22:56;;;;;;;14.50;11.23;;;10.70;78.20;;;;;;5093765;28;20024;-35
2021/04/19 01:25:24;;;;;;;16.25;11.38;;;10.80;77.70;;;;;;5092363;28;20032;-35
2021/04/19 01:27:51;;;;;;;12.65;10.52;;;10.60;78.10;;;;;;5093630;28;20380;-35
2021/04/19 01:30:19;;;;;;;13.50;11.25;;;10.60;78.60;;;;;;5093432;28;20077;-35
2021/04/19 01:32:46;;;;;;;14.82;10.65;;;10.60;78.40;;;;;;5092049;28;20036;-35
2021/04/19 01:35:13;;;;;;;14.27;11.13;;;10.70;78.30;;;;;;5093436;28;20068;-35
2021/04/19 01:37:39;;;;;;;15.65;11.18;;;10.70;78.30;;;;;;5093534;28;20024;-35
2021/04/19 01:40:08;;;;;;;17.55;11.32;;;10.50;79.10;;;;;;5093390;28;20020;-36
2021/04/19 01:42:34;;;;;;;11.48;10.05;;;10.40;79.80;;;;;;5093346;28;20027;-35
2021/04/19 01:45:00;;;;;;;13.52;10.65;;;10.30;80.30;;;;;;5093476;28;20020;-36
2021/04/19 01:47:26;;;;;;;16.60;12.88;;;10.40;80.10;;;;;;5093539;28;20032;-36
2021/04/19 01:49:52;;;;;;;14.27;10.85;;;10.30;80.80;;;;;;5093166;28;20040;-36
2021/04/19 01:52:18;;;;;;;15.48;11.27;;;10.20;81.30;;;;;;5093239;28;20437;-36
2021/04/19 01:54:43;;;;;;;15.60;11.15;;;10.30;81.30;;;;;;5093233;28;20107;-36
2021/04/19 01:57:09;;;;;;;16.00;12.60;;;10.20;81.70;;;;;;5093944;28;20406;-36
2021/04/19 01:59:36;;;;;;;17.83;13.32;;;10.20;81.90;;;;;;5093199;28;20027;-35
2021/04/19 02:02:34;;;;;;;15.88;11.75;;;10.10;82.50;;;;;;5091791;28;20389;-36
2021/04/19 02:05:17;;;;;;;13.80;10.38;;;10.30;81.90;;;;;;5093529;28;20372;-36
2021/04/19 02:07:52;;;;;;;14.38;11.30;;;10.20;82.10;;;;;;5093718;28;20095;-36
2021/04/19 02:10:34;;;;;;;19.30;11.90;;;10.20;82.40;;;;;;5093112;28;20101;-36
2021/04/19 02:13:28;;;;;;;14.60;11.15;;;10.10;82.70;;;;;;5093302;28;20028;-36
2021/04/19 02:16:06;;;;;;;14.52;11.27;;;10.20;83.30;;;;;;5094377;28;20358;-36
2021/04/19 02:18:53;;;;;;;15.52;11.05;;;10.00;83.70;;;;;;5097540;28;20020;-36
2021/04/19 02:21:43;;;;;;;15.88;11.95;;;10.10;84.10;;;;;;5096355;28;20027;-36
2021/04/19 02:24:13;;;;;;;17.13;13.18;;;10.00;84.30;;;;;;5096551;28;20039;-36
2021/04/19 02:26:46;;;;;;;20.25;14.38;;;9.90;85.00;;;;;;5097227;28;20024;-36
2021/04/19 02:29:19;;;;;;;21.60;15.95;;;9.90;85.40;;;;;;5095708;28;20036;-35
2021/04/19 02:32:07;;;;;;;22.88;17.13;;;9.80;86.00;;;;;;5095790;28;20398;-35
2021/04/19 02:34:35;;;;;;;20.67;16.88;;;9.70;86.70;;;;;;5096710;28;20479;-35
2021/04/19 02:37:02;;;;;;;23.10;19.17;;;9.70;86.80;;;;;;5096793;28;20376;-36
2021/04/19 02:39:32;;;;;;;26.38;18.70;;;9.60;87.70;;;;;;5096811;28;20031;-35
2021/04/19 02:41:59;;;;;;;26.05;20.35;;;9.60;87.60;;;;;;5096822;28;20030;-35
2021/04/19 02:44:26;;;;;;;26.63;20.08;;;9.60;87.90;;;;;;5096665;28;20031;-35
2021/04/19 02:46:53;;;;;;;25.02;18.35;;;9.60;88.20;;;;;;5096640;28;20062;-35
2021/04/19 02:49:27;;;;;;;29.88;21.05;;;9.50;88.50;;;;;;5095152;28;20098;-35
2021/04/19 02:51:55;;;;;;;29.25;21.92;;;9.40;88.60;;;;;;5096507;28;20077;-36
2021/04/19 02:54:22;;;;;;;27.42;21.50;;;9.40;89.30;;;;;;5096592;28;20082;-36
2021/04/19 02:56:50;;;;;;;29.33;21.00;;;9.40;89.60;;;;;;5095596;28;20082;-36
2021/04/19 02:59:19;;;;;;;28.27;22.10;;;9.40;89.10;;;;;;5096466;28;20529;-36
2021/04/19 03:01:48;;;;;;;31.60;22.77;;;9.30;89.90;;;;;;5096426;28;20035;-36
2021/04/19 03:04:20;;;;;;;28.75;22.45;;;9.30;89.90;;;;;;5096231;28;20024;-36
2021/04/19 03:06:50;;;;;;;37.17;25.63;;;9.30;90.00;;;;;;5096360;28;20051;-36
2021/04/19 03:09:17;;;;;;;36.08;25.02;;;9.30;90.50;;;;;;5096766;28;20028;-35
2021/04/19 03:11:54;;;;;;;38.15;25.55;;;9.30;90.90;;;;;;5096425;28;20047;-36
2021/04/19 03:14:24;;;;;;;34.58;24.05;;;9.20;91.10;;;;;;5096096;28;20416;-35
2021/04/19 03:17:07;;;;;;;34.13;24.88;;;9.20;90.90;;;;;;5096132;28;20024;-36
2021/04/19 03:19:38;;;;;;;37.20;25.15;;;9.30;91.30;;;;;;5094759;28;20426;-36
2021/04/19 03:22:06;;;;;;;33.33;23.13;;;9.30;90.80;;;;;;5094768;28;20020;-36
2021/04/19 03:24:33;;;;;;;29.63;23.33;;;9.20;91.00;;;;;;5094630;28;20055;-36
2021/04/19 03:27:01;;;;;;;31.38;24.02;;;9.20;91.00;;;;;;5095226;28;20107;-36
2021/04/19 03:29:28;;;;;;;32.63;22.80;;;9.30;90.60;;;;;;5095831;28;20028;-36
2021/04/19 03:31:56;;;;;;;33.00;23.23;;;9.30;90.90;;;;;;5095803;28;20024;-36
2021/04/19 03:34:29;;;;;;;36.00;24.52;;;9.20;90.70;;;;;;5095599;28;20032;-36
2021/04/19 03:37:02;;;;;;;30.52;24.08;;;9.20;91.00;;;;;;5096039;28;20048;-36
2021/04/19 03:39:30;;;;;;;35.72;25.05;;;9.30;91.40;;;;;;5095985;28;20027;-36
2021/04/19 03:41:57;;;;;;;49.85;31.00;;;9.30;91.40;;;;;;5096430;28;20479;-36
2021/04/19 03:44:28;;;;;;;39.95;27.38;;;9.30;91.20;;;;;;5096092;28;20020;-36
2021/04/19 03:46:56;;;;;;;37.72;28.67;;;9.30;91.10;;;;;;5095797;28;20024;-36
2021/04/19 03:49:40;;;;;;;38.30;27.10;;;9.30;91.50;;;;;;5095351;28;20036;-36
2021/04/19 03:52:12;;;;;;;39.08;27.15;;;9.30;91.10;;;;;;5095735;28;20016;-36
2021/04/19 03:54:42;;;;;;;41.20;28.65;;;9.30;91.00;;;;;;5095571;28;20434;-36
2021/04/19 03:57:11;;;;;;;39.30;28.33;;;9.40;91.00;;;;;;5095363;28;20158;-36
2021/04/19 03:59:39;;;;;;;36.33;27.40;;;9.30;90.70;;;;;;5093998;28;20016;-36
2021/04/19 04:02:07;;;;;;;33.92;24.52;;;9.50;91.00;;;;;;5095279;28;20016;-36
2021/04/19 04:04:33;;;;;;;32.75;22.95;;;9.30;90.50;;;;;;5095704;28;20040;-36
2021/04/19 04:07:00;;;;;;;33.22;24.73;;;9.20;91.20;;;;;;5095184;28;20097;-36
2021/04/19 04:09:26;;;;;;;31.95;23.30;;;9.10;91.40;;;;;;5093853;28;20028;-36
2021/04/19 04:11:53;;;;;;;34.25;26.13;;;9.00;91.70;;;;;;5095382;28;20115;-35
2021/04/19 04:14:19;;;;;;;40.63;27.95;;;9.10;92.00;;;;;;5094944;28;20031;-36
2021/04/19 04:16:44;;;;;;;40.65;27.58;;;9.20;91.80;;;;;;5093655;28;20028;-35
2021/04/19 04:19:11;;;;;;;35.58;26.85;;;9.20;91.60;;;;;;5094904;28;20020;-36
2021/04/19 04:21:38;;;;;;;45.08;28.00;;;9.00;92.20;;;;;;5093542;28;20031;-36
2021/04/19 04:24:04;;;;;;;45.03;31.23;;;9.30;92.10;;;;;;5094755;28;20095;-36
2021/04/19 04:26:31;;;;;;;36.78;27.98;;;9.30;91.70;;;;;;5094606;28;20540;-35
2021/04/19 04:28:58;;;;;;;42.60;29.73;;;9.30;91.70;;;;;;5094934;28;20357;-36
2021/04/19 04:31:23;;;;;;;45.88;31.02;;;9.30;91.40;;;;;;5094899;28;20078;-36
2021/04/19 04:33:49;;;;;;;44.30;30.92;;;9.30;91.20;;;;;;5094494;28;20106;-35
2021/04/19 04:36:16;;;;;;;44.25;30.35;;;9.40;90.80;;;;;;5094805;28;20039;-35
2021/04/19 04:38:42;;;;;;;41.95;30.23;;;9.40;91.10;;;;;;5094250;28;20012;-36
2021/04/19 04:41:08;;;;;;;37.75;28.10;;;9.40;91.20;;;;;;5093975;28;20031;-35
2021/04/19 04:43:36;;;;;;;35.47;26.40;;;9.30;91.40;;;;;;5094685;28;20039;-36
2021/04/19 04:46:31;;;;;;;34.25;26.35;;;9.20;91.40;;;;;;5094590;28;20042;-35
2021/04/19 04:49:09;;;;;;;36.05;27.48;;;9.30;91.50;;;;;;5093632;28;20542;-36
2021/04/19 04:51:36;;;;;;;38.78;27.70;;;9.30;91.40;;;;;;5093174;28;20042;-35
2021/04/19 04:54:23;;;;;;;38.42;29.98;;;9.30;91.20;;;;;;5094457;28;20032;-35
2021/04/19 04:56:55;;;;;;;41.13;28.70;;;9.30;91.20;;;;;;5093949;28;20044;-35
2021/04/19 04:59:23;;;;;;;34.63;26.52;;;9.40;91.20;;;;;;5094098;28;20406;-36
2021/04/19 05:01:50;;;;;;;36.42;27.17;;;9.40;91.00;;;;;;5094034;28;20031;-35
2021/04/19 05:04:16;;;;;;;41.55;30.55;;;9.40;90.90;;;;;;5093904;28;20387;-35
2021/04/19 05:06:43;;;;;;;41.25;29.48;;;9.50;90.40;;;;;;5093927;28;20119;-36
2021/04/19 05:09:10;;;;;;;45.75;31.10;;;9.50;90.40;;;;;;5094111;28;20032;-35
2021/04/19 05:11:54;;;;;;;44.50;31.00;;;9.50;90.60;;;;;;5093844;28;20497;-36
2021/04/19 05:14:25;;;;;;;41.50;28.73;;;9.50;90.30;;;;;;5093668;28;20024;-36
2021/04/19 05:16:51;;;;;;;48.30;34.00;;;9.60;90.20;;;;;;5093702;28;20027;-36
2021/04/19 05:19:17;;;;;;;53.58;34.03;;;9.60;90.10;;;;;;5093701;28;20028;-36
2021/04/19 05:21:42;;;;;;;47.72;32.17;;;9.60;90.70;;;;;;5093995;28;20050;-35
2021/04/19 05:24:08;;;;;;;48.70;34.05;;;9.50;90.80;;;;;;5093658;28;20081;-36
2021/04/19 05:26:35;;;;;;;55.70;37.42;;;9.60;90.70;;;;;;5093320;28;20058;-36
2021/04/19 05:29:01;;;;;;;60.35;38.35;;;9.60;90.40;;;;;;5093587;28;20072;-37
2021/04/19 05:31:26;;;;;;;67.47;37.60;;;9.50;90.70;;;;;;5093762;28;20024;-36
2021/04/19 05:33:56;;;;;;;63.72;39.25;;;9.60;90.50;;;;;;5093565;28;20490;-36
2021/04/19 05:36:26;;;;;;;61.97;39.67;;;9.40;91.20;;;;;;5093486;28;20099;-36
2021/04/19 05:38:52;;;;;;;57.10;39.22;;;9.40;91.20;;;;;;5092116;28;20016;-36
2021/04/19 05:41:20;;;;;;;67.85;41.60;;;9.50;91.10;;;;;;5094094;28;20150;-36
2021/04/19 05:43:46;;;;;;;63.67;41.38;;;9.70;90.60;;;;;;5093391;28;20031;-36
2021/04/19 05:46:13;;;;;;;68.43;40.75;;;9.60;90.80;;;;;;5092105;28;20107;-36
2021/04/19 05:48:39;;;;;;;59.50;38.20;;;9.50;90.90;;;;;;5093166;28;20119;-36
2021/04/19 05:51:13;;;;;;;61.33;40.35;;;9.60;90.70;;;;;;5092992;28;20066;-36
2021/04/19 05:53:40;;;;;;;61.28;40.03;;;9.60;90.60;;;;;;5093670;28;20509;-36
2021/04/19 05:56:18;;;;;;;63.72;41.00;;;9.50;91.00;;;;;;5091947;28;20044;-39
2021/04/19 05:58:53;;;;;;;65.65;40.72;;;9.50;90.90;;;;;;5093285;28;20027;-36
2021/04/19 06:01:22;;;;;;;63.63;39.15;;;9.60;90.90;;;;;;5093288;28;20048;-36
2021/04/19 06:04:29;;;;;;;59.40;38.55;;;9.60;91.10;;;;;;5093304;28;20031;-36
2021/04/19 06:07:25;;;;;;;62.10;38.88;;;9.50;91.00;;;;;;5091985;28;20050;-36
2021/04/19 06:10:01;;;;;;;62.30;39.60;;;9.60;91.20;;;;;;5093307;28;20024;-36
2021/04/19 06:12:32;;;;;;;59.05;38.03;;;9.70;90.80;;;;;;5092900;28;20020;-35
2021/04/19 06:15:05;;;;;;;64.32;40.60;;;9.50;90.80;;;;;;5093003;28;20028;-34
2021/04/19 06:17:34;;;;;;;55.40;37.35;;;9.60;90.80;;;;;;5093201;28;20384;-35
2021/04/19 06:20:00;;;;;;;53.58;36.40;;;9.70;90.70;;;;;;5093138;28;20038;-35
2021/04/19 06:22:27;;;;;;;48.22;33.72;;;9.60;90.50;;;;;;5074671;28;20022;-35
2021/04/19 06:24:53;;;;;;;54.95;36.55;;;9.50;90.40;;;;;;5092903;28;20054;-35
2021/04/19 06:27:23;;;;;;;52.83;34.33;;;9.70;90.40;;;;;;5092834;28;20024;-35
2021/04/19 06:29:49;;;;;;;52.08;34.40;;;9.60;90.00;;;;;;5092735;28;20054;-35
2021/04/19 06:32:17;;;;;;;49.30;31.67;;;9.60;90.20;;;;;;5092569;28;20379;-35
2021/04/19 06:34:42;;;;;;;49.60;34.42;;;9.50;90.40;;;;;;5092995;28;20024;-35
2021/04/19 06:37:08;;;;;;;45.80;31.33;;;9.60;90.90;;;;;;5092720;28;20028;-36
2021/04/19 06:39:35;;;;;;;43.33;28.77;;;9.80;89.70;;;;;;5092998;28;20043;-36
2021/04/19 06:42:04;;;;;;;41.80;28.45;;;9.80;89.30;;;;;;5091523;28;20024;-37
2021/04/19 06:44:30;;;;;;;47.17;31.15;;;9.80;89.00;;;;;;5091408;28;20032;-36
2021/04/19 06:46:58;;;;;;;47.03;30.35;;;9.90;89.20;;;;;;5092536;28;20032;-35
2021/04/19 06:49:25;;;;;;;45.47;32.60;;;9.90;89.10;;;;;;5092290;28;20445;-36
2021/04/19 06:51:53;;;;;;;48.63;33.58;;;9.90;89.50;;;;;;5092379;28;20455;-36
2021/04/19 06:54:19;;;;;;;45.20;31.38;;;10.20;88.60;;;;;;5093043;28;20494;-37
2021/04/19 06:56:46;;;;;;;43.60;31.90;;;10.40;87.70;;;;;;5092361;28;20028;-36
2021/04/19 06:59:18;;;;;;;41.38;28.30;;;10.50;87.30;;;;;;5092332;28;20020;-38
2021/04/19 07:01:48;;;;;;;36.70;24.27;;;10.50;86.60;;;;;;5092465;28;20025;-36
2021/04/19 07:04:19;;;;;;;34.65;24.13;;;10.80;85.50;;;;;;5095428;28;20024;-36
2021/04/19 07:06:46;;;;;;;35.58;24.83;;;10.80;85.10;;;;;;5096106;28;20049;-35
2021/04/19 07:09:17;;;;;;;18.42;13.27;;;11.00;84.40;;;;;;5095692;28;20103;-37
2021/04/19 07:11:44;;;;;;;18.05;12.20;;;10.80;81.80;;;;;;5095645;28;20031;-35
2021/04/19 07:14:12;;;;;;;14.38;10.98;;;10.80;82.10;;;;;;5096568;28;20123;-35
2021/04/19 07:16:38;;;;;;;14.32;10.00;;;11.00;81.30;;;;;;5095454;28;20024;-35
2021/04/19 07:19:06;;;;;;;12.00;9.65;;;11.30;78.90;;;;;;5095854;28;20422;-35
2021/04/19 07:21:35;;;;;;;12.20;8.95;;;11.10;79.80;;;;;;5095543;28;20027;-35
2021/04/19 07:24:02;;;;;;;11.85;9.15;;;10.90;80.10;;;;;;5095844;28;20032;-36
2021/04/19 07:26:29;;;;;;;12.38;10.63;;;11.00;79.90;;;;;;5095372;28;20189;-36
2021/04/19 07:28:55;;;;;;;13.18;8.55;;;11.10;79.80;;;;;;5095923;28;20489;-36
2021/04/19 07:31:21;;;;;;;14.68;9.63;;;11.00;78.90;;;;;;5095537;28;20031;-36
2021/04/19 07:33:47;;;;;;;17.20;10.18;;;11.10;79.40;;;;;;5095658;28;20024;-36
2021/04/19 07:36:32;;;;;;;12.10;10.18;;;11.40;78.30;;;;;;5095633;28;20407;-36
2021/04/19 07:38:59;;;;;;;14.98;10.70;;;11.60;78.30;;;;;;5095612;28;20479;-36
2021/04/19 07:41:49;;;;;;;11.55;9.02;;;11.50;78.40;;;;;;5094921;28;20016;-36
2021/04/19 07:44:36;;;;;;;12.30;8.93;;;11.50;79.00;;;;;;5093295;28;20063;-35
2021/04/19 07:47:25;;;;;;;10.65;8.80;;;11.40;78.50;;;;;;5095087;28;20028;-36
2021/04/19 07:50:23;;;;;;;13.00;8.93;;;11.80;76.80;;;;;;5094964;28;20121;-36
2021/04/19 07:53:04;;;;;;;13.02;8.10;;;11.90;76.90;;;;;;5094779;28;20035;-38
2021/04/19 07:55:33;;;;;;;11.48;7.93;;;11.90;76.30;;;;;;5095393;28;20024;-35
2021/04/19 07:57:59;;;;;;;7.90;6.28;;;12.20;75.50;;;;;;5095649;28;20055;-36
2021/04/19 08:00:36;;;;;;;8.13;5.55;;;12.00;74.10;;;;;;5095055;28;20369;-36
2021/04/19 08:03:10;;;;;;;9.43;6.35;;;11.90;74.30;;;;;;5095449;28;20016;-35
2021/04/19 08:05:48;;;;;;;6.32;4.95;;;11.80;74.00;;;;;;5093459;28;20117;-36
2021/04/19 08:08:17;;;;;;;9.45;6.07;;;11.90;73.60;;;;;;5094522;28;20028;-36
2021/04/19 08:10:45;;;;;;;11.18;7.10;;;12.10;73.20;;;;;;5092679;28;20036;-36
2021/04/19 08:13:14;;;;;;;7.25;6.28;;;12.30;73.50;;;;;;5093911;28;20516;-36
2021/04/19 08:15:44;;;;;;;9.75;6.53;;;12.20;72.30;;;;;;5093958;28;20028;-36
2021/04/19 08:18:11;;;;;;;8.15;6.80;;;12.20;74.00;;;;;;5094181;28;20024;-39
2021/04/19 08:20:38;;;;;;;6.75;5.88;;;12.20;72.90;;;;;;5094336;28;20064;-37
2021/04/19 08:23:11;;;;;;;8.23;7.40;;;12.20;71.40;;;;;;5094756;28;20364;-37
2021/04/19 08:25:51;;;;;;;13.13;10.52;;;12.30;71.60;;;;;;5094588;28;20024;-37
2021/04/19 08:28:21;;;;;;;18.70;12.40;;;12.20;74.20;;;;;;5094644;28;20479;-37
2021/04/19 08:30:54;;;;;;;19.13;13.68;;;12.30;74.60;;;;;;5094297;28;20031;-38
2021/04/19 08:33:20;;;;;;;14.18;11.60;;;12.30;75.30;;;;;;5094387;28;20031;-37
2021/04/19 08:35:48;;;;;;;15.65;12.98;;;12.30;75.00;;;;;;5094086;28;20475;-37
2021/04/19 08:38:20;;;;;;;12.43;10.43;;;12.50;73.20;;;;;;5093819;28;20024;-37
2021/04/19 08:40:47;;;;;;;13.85;10.63;;;12.40;74.30;;;;;;5093794;28;20035;-37
2021/04/19 08:43:19;;;;;;;13.82;11.02;;;12.60;73.10;;;;;;5094585;28;20032;-38
2021/04/19 08:45:45;;;;;;;9.20;8.05;;;12.80;72.90;;;;;;5094265;28;20422;-38
2021/04/19 08:48:14;;;;;;;10.68;8.50;;;13.60;68.70;;;;;;5093856;28;20043;-37
2021/04/19 08:50:42;;;;;;;9.40;7.97;;;14.40;63.90;;;;;;5093980;28;20099;-37
2021/04/19 08:53:11;;;;;;;10.85;8.73;;;14.30;64.20;;;;;;5093816;28;20086;-37
2021/04/19 08:55:38;;;;;;;8.85;7.93;;;15.10;63.00;;;;;;5093525;28;20017;-37
2021/04/19 08:58:09;;;;;;;13.98;8.90;;;13.70;64.40;;;;;;5093579;28;20425;-38
2021/04/19 09:00:36;;;;;;;14.35;10.50;;;12.50;70.00;;;;;;5093493;28;20026;-38
2021/04/19 09:03:02;;;;;;;15.38;12.18;;;12.50;70.80;;;;;;5092551;28;20032;-36
2021/04/19 09:05:28;;;;;;;16.33;11.88;;;12.50;71.00;;;;;;5093140;28;20595;-37
2021/04/19 09:08:08;;;;;;;13.23;10.77;;;12.50;71.50;;;;;;5093007;28;20139;-36
2021/04/19 09:10:52;;;;;;;12.80;10.40;;;12.60;69.00;;;;;;5092111;28;20463;-36
2021/04/19 09:13:30;;;;;;;18.98;13.98;;;12.50;70.10;;;;;;5092932;28;20028;-36
2021/04/19 09:16:14;;;;;;;13.15;10.40;;;12.50;70.00;;;;;;5093429;28;20366;-37
2021/04/19 09:18:45;;;;;;;12.02;9.73;;;12.60;69.40;;;;;;5093806;28;20107;-37
2021/04/19 09:21:32;;;;;;;11.35;10.05;;;13.30;65.40;;;;;;5093715;28;20099;-36
2021/04/19 09:23:58;;;;;;;12.82;8.93;;;13.50;64.20;;;;;;5093644;28;20032;-36
2021/04/19 09:26:47;;;;;;;10.52;9.13;;;13.10;65.40;;;;;;5092771;28;20050;-36
2021/04/19 09:29:25;;;;;;;12.77;9.70;;;12.80;67.90;;;;;;5092860;28;20048;-36
2021/04/19 09:32:23;;;;;;;10.82;7.38;;;12.90;67.40;;;;;;5093460;28;20032;-38
2021/04/19 09:34:54;;;;;;;9.93;7.95;;;12.90;65.40;;;;;;5093166;28;20044;-36
2021/04/19 09:37:36;;;;;;;13.88;7.15;;;13.30;65.40;;;;;;5093330;28;20095;-37
2021/04/19 09:40:05;;;;;;;8.32;6.82;;;13.50;63.40;;;;;;5095743;28;20026;-37
2021/04/19 09:43:08;;;;;;;12.93;7.43;;;13.80;62.40;;;;;;5093184;28;20039;-37
2021/04/19 09:45:45;;;;;;;7.95;5.78;;;14.30;60.50;;;;;;5092850;28;20031;-38
2021/04/19 09:48:26;;;;;;;8.27;6.15;;;14.20;59.70;;;;;;5092680;28;20115;-37
2021/04/19 09:50:56;;;;;;;7.32;6.30;;;14.30;59.20;;;;;;5092858;28;20122;-36
2021/04/19 09:53:23;;;;;;;16.60;10.93;;;14.70;57.70;;;;;;5092600;28;20032;-46
2021/04/19 09:55:50;;;;;;;17.35;11.57;;;14.10;61.90;;;;;;5093040;28;20480;-37
2021/04/19 09:58:16;;;;;;;13.18;11.05;;;14.10;61.90;;;;;;5092902;28;20360;-37
2021/04/19 10:00:43;;;;;;;17.17;11.13;;;14.20;61.70;;;;;;5093313;28;20103;-38
2021/04/19 10:03:10;;;;;;;12.07;9.88;;;14.60;59.60;;;;;;5092810;28;20035;-36
2021/04/19 10:05:43;;;;;;;13.25;10.52;;;14.60;60.60;;;;;;5092587;28;20361;-36
2021/04/19 10:08:10;;;;;;;15.20;10.02;;;14.80;58.80;;;;;;5093538;28;20384;-37
2021/04/19 10:10:37;;;;;;;12.15;9.48;;;15.00;58.90;;;;;;5092951;28;20020;-38
2021/04/19 10:13:02;;;;;;;11.23;9.15;;;14.80;59.90;;;;;;5091388;28;20361;-37
2021/04/19 10:15:28;;;;;;;13.38;8.75;;;14.40;58.90;;;;;;5091616;28;20034;-37
2021/04/19 10:17:54;;;;;;;12.82;9.45;;;14.40;60.20;;;;;;5093335;28;20020;-37
2021/04/19 10:20:24;;;;;;;12.85;9.55;;;15.20;58.40;;;;;;5093084;28;20025;-36
2021/04/19 10:23:12;;;;;;;14.63;10.60;;;16.20;55.50;;;;;;5092726;28;20024;-37
2021/04/19 10:25:52;;;;;;;13.20;10.27;;;15.70;56.80;;;;;;5092285;28;20058;-37
2021/04/19 10:28:36;;;;;;;13.02;9.70;;;16.10;54.90;;;;;;5093655;28;20107;-36
2021/04/19 10:31:16;;;;;;;13.52;11.07;;;15.80;53.50;;;;;;5092670;28;20020;-36
2021/04/19 10:33:44;;;;;;;12.40;9.68;;;15.60;55.30;;;;;;5093207;28;20036;-36
2021/04/19 10:36:12;;;;;;;13.43;11.77;;;16.00;53.90;;;;;;5092883;28;20027;-38
2021/04/19 10:38:38;;;;;;;15.82;12.45;;;15.30;57.10;;;;;;5095374;28;20055;-37
2021/04/19 10:41:04;;;;;;;14.98;11.68;;;14.70;59.50;;;;;;5096488;28;20016;-37
2021/04/19 10:43:30;;;;;;;16.17;11.65;;;14.30;60.00;;;;;;5096587;28;20024;-38
2021/04/19 10:45:55;;;;;;;14.35;11.32;;;14.30;60.80;;;;;;5096335;28;20027;-37
2021/04/19 10:48:29;;;;;;;12.65;11.18;;;14.10;60.10;;;;;;5096572;28;20043;-37
2021/04/19 10:51:26;;;;;;;15.73;11.52;;;14.20;60.00;;;;;;5097042;28;20059;-37
2021/04/19 10:53:54;;;;;;;16.23;12.52;;;14.60;59.80;;;;;;5096282;28;20054;-37
2021/04/19 10:56:21;;;;;;;15.25;11.60;;;14.60;61.00;;;;;;5096867;28;20035;-36
2021/04/19 10:58:49;;;;;;;15.10;10.15;;;14.40;60.00;;;;;;5096437;28;20057;-37
2021/04/19 11:01:21;;;;;;;15.80;10.07;;;14.30;59.10;;;;;;5094727;28;20133;-36
2021/04/19 11:03:47;;;;;;;11.35;9.27;;;14.20;58.80;;;;;;5096110;28;20027;-37
2021/04/19 11:06:15;;;;;;;11.07;9.00;;;14.20;58.60;;;;;;5096539;28;20081;-37
2021/04/19 11:08:54;;;;;;;14.73;11.02;;;14.10;58.20;;;;;;5094562;28;20118;-37
2021/04/19 11:11:26;;;;;;;12.45;10.23;;;14.00;58.80;;;;;;5095909;28;20024;-37
2021/04/19 11:13:53;;;;;;;15.00;10.52;;;14.30;57.70;;;;;;5096004;28;20498;-36
2021/04/19 11:16:20;;;;;;;16.88;10.65;;;14.40;58.20;;;;;;5096185;28;20032;-39
2021/04/19 11:18:47;;;;;;;15.23;10.05;;;14.60;57.90;;;;;;5095834;28;20045;-37
2021/04/19 11:21:33;;;;;;;14.68;8.80;;;14.50;57.30;;;;;;5096000;28;20027;-37
2021/04/19 11:24:11;;;;;;;11.85;8.48;;;14.70;56.30;;;;;;5079113;28;20042;-37
2021/04/19 11:26:37;;;;;;;10.27;7.80;;;14.60;55.80;;;;;;5096162;28;20042;-37
2021/04/19 11:29:04;;;;;;;11.23;8.55;;;14.50;55.50;;;;;;5096423;28;20361;-37
2021/04/19 11:31:49;;;;;;;10.10;8.30;;;14.50;54.90;;;;;;5097178;28;20047;-37
2021/04/19 11:34:16;;;;;;;10.00;7.65;;;14.70;55.50;;;;;;5096141;28;20468;-37
2021/04/19 11:36:44;;;;;;;11.45;7.80;;;14.90;55.60;;;;;;5096196;28;20051;-38
2021/04/19 11:39:12;;;;;;;11.70;8.15;;;14.60;54.70;;;;;;5095760;28;20081;-37
2021/04/19 11:41:38;;;;;;;10.73;7.45;;;14.30;55.40;;;;;;5095829;28;20028;-37
2021/04/19 11:44:05;;;;;;;10.30;8.38;;;14.60;53.80;;;;;;5094428;28;20024;-37
2021/04/19 11:46:30;;;;;;;14.77;10.10;;;15.20;51.60;;;;;;5095473;28;20028;-38
2021/04/19 11:48:56;;;;;;;10.60;8.55;;;15.10;53.00;;;;;;5094539;28;20050;-37
2021/04/19 11:51:22;;;;;;;11.77;8.88;;;15.30;53.50;;;;;;5096361;28;20091;-36
2021/04/19 11:53:49;;;;;;;12.32;8.63;;;15.20;54.00;;;;;;5096031;28;20035;-38
2021/04/19 11:56:17;;;;;;;11.93;9.13;;;15.50;54.30;;;;;;5095108;28;20031;-37
2021/04/19 11:58:45;;;;;;;14.60;10.20;;;15.40;54.60;;;;;;5095340;28;20052;-38
2021/04/19 12:01:19;;;;;;;18.52;9.50;;;15.60;54.90;;;;;;5093509;28;20073;-37
2021/04/19 12:03:46;;;;;;;15.80;12.50;;;15.30;56.60;;;;;;5094868;28;20059;-37
2021/04/19 12:06:13;;;;;;;17.83;12.73;;;14.80;59.60;;;;;;5095787;28;20024;-36
2021/04/19 12:08:41;;;;;;;15.40;9.90;;;14.90;59.30;;;;;;5094458;28;20028;-36
2021/04/19 12:11:08;;;;;;;12.98;9.60;;;14.80;59.10;;;;;;5094670;28;20387;-36
2021/04/19 12:13:36;;;;;;;14.60;8.88;;;15.10;55.60;;;;;;5094750;28;20024;-36
2021/04/19 12:16:02;;;;;;;13.30;10.00;;;14.80;55.00;;;;;;5094824;28;20020;-36
2021/04/19 12:18:28;;;;;;;13.63;10.43;;;14.40;56.30;;;;;;5095034;28;20039;-37
2021/04/19 12:20:54;;;;;;;13.48;10.77;;;14.60;57.20;;;;;;5093329;28;20059;-37
2021/04/19 12:23:20;;;;;;;20.65;12.23;;;14.40;57.60;;;;;;5094919;28;20028;-37
2021/04/19 12:25:52;;;;;;;15.13;9.35;;;14.60;57.30;;;;;;5094841;28;20078;-37
2021/04/19 12:28:19;;;;;;;14.48;10.93;;;14.80;56.60;;;;;;5093794;28;20035;-36
2021/04/19 12:30:45;;;;;;;14.82;11.13;;;15.60;54.70;;;;;;5094127;28;20024;-37
2021/04/19 12:33:11;;;;;;;14.10;10.10;;;16.20;50.80;;;;;;5094667;28;20110;-37
2021/04/19 12:35:37;;;;;;;13.60;10.43;;;16.10;52.20;;;;;;5094311;28;20056;-37
2021/04/19 12:38:03;;;;;;;16.50;11.10;;;16.30;51.40;;;;;;5093960;28;20080;-37
2021/04/19 12:40:29;;;;;;;17.08;12.15;;;16.20;51.40;;;;;;5094023;28;20028;-37
2021/04/19 12:42:56;;;;;;;18.88;12.82;;;16.30;51.90;;;;;;5093937;28;20494;-37
2021/04/19 12:45:24;;;;;;;14.88;11.95;;;16.80;51.10;;;;;;5094224;28;20162;-47
2021/04/19 12:47:53;;;;;;;13.13;11.55;;;17.80;47.60;;;;;;5093928;28;20031;-37